Time;durP1;ratioP1;P1;durP2;ratioP2;P2;SDS_P1;SDS_P2;PMS_P1;PMS_P2;Temp;Humidity;BMP_temperature;BMP_pressure;BME280_temperature;BME280_humidity;BME280_pressure;Samples;Min_cycle;Max_cycle;Signal;HPM_P1;HPM_P2
2023/11/24 00:00:50;;;;;;;;;;;;;;;20.26;49.62;99618.75;5021736;28;1955;-77
2023/11/24 00:03:17;;;;;;;;;;;;;;;20.26;49.85;99624.47;5018835;28;2052;-75
2023/11/24 00:05:44;;;;;;;;;;;;;;;20.26;49.77;99635.97;5020717;28;1961;-74
2023/11/24 00:08:11;;;;;;;;;;;;;;;20.28;49.88;99630.28;5023808;28;1976;-75
2023/11/24 00:10:37;;;;;;;;;;;;;;;20.27;49.42;99637.44;5020315;28;2007;-75
2023/11/24 00:13:04;;;;;;;;;;;;;;;20.25;49.43;99634.53;5021701;28;1891;-74
2023/11/24 00:15:30;;;;;;;;;;;;;;;20.25;49.52;99628.78;5025189;28;1971;-74
2023/11/24 00:17:57;;;;;;;;;;;;;;;20.23;49.60;99637.34;5027789;28;1899;-75
2023/11/24 00:20:25;;;;;;;;;;;;;;;20.23;49.64;99632.31;5021816;28;2153;-75
2023/11/24 00:22:52;;;;;;;;;;;;;;;20.23;49.91;99643.09;5022046;28;2037;-74
2023/11/24 00:25:18;;;;;;;;;;;;;;;20.22;49.65;99635.88;5018816;28;2249;-73
2023/11/24 00:27:45;;;;;;;;;;;;;;;20.22;49.52;99642.34;5026480;28;1930;-75
2023/11/24 00:30:12;;;;;;;;;;;;;;;20.23;49.71;99645.97;5027126;28;1982;-73
2023/11/24 00:32:39;;;;;;;;;;;;;;;20.24;49.44;99658.91;5026269;28;2026;-73
2023/11/24 00:35:06;;;;;;;;;;;;;;;20.23;49.63;99651.72;5020666;28;2073;-73
2023/11/24 00:37:33;;;;;;;;;;;;;;;20.22;49.68;99664.59;5023652;28;2041;-73
2023/11/24 00:40:00;;;;;;;;;;;;;;;20.23;49.58;99654.59;5024720;28;2163;-73
2023/11/24 00:42:29;;;;;;;;;;;;;;;20.22;49.46;99644.50;5028816;28;2050;-73
2023/11/24 00:44:56;;;;;;;;;;;;;;;20.21;49.34;99658.13;5026079;28;1911;-73
2023/11/24 00:47:23;;;;;;;;;;;;;;;20.21;49.23;99657.41;5028122;28;1738;-72
2023/11/24 00:49:49;;;;;;;;;;;;;;;20.23;49.47;99643.09;5032953;28;1989;-72
2023/11/24 00:52:15;;;;;;;;;;;;;;;20.23;49.29;99646.69;5028132;28;2280;-67
2023/11/24 00:54:42;;;;;;;;;;;;;;;20.24;49.22;99650.28;5029688;28;1963;-67
2023/11/24 00:57:09;;;;;;;;;;;;;;;20.24;49.58;99639.53;5032352;28;1986;-67
2023/11/24 00:59:36;;;;;;;;;;;;;;;20.25;49.42;99643.16;5028432;28;2042;-66
2023/11/24 01:02:02;;;;;;;;;;;;;;;20.26;49.45;99627.34;5029794;28;2010;-66
2023/11/24 01:04:29;;;;;;;;;;;;;;;20.26;49.55;99630.22;5025682;28;2008;-66
2023/11/24 01:06:56;;;;;;;;;;;;;;;20.26;49.51;99627.34;5027171;28;1942;-67
2023/11/24 01:09:24;;;;;;;;;;;;;;;20.27;49.63;99632.44;5022557;28;3369;-74
2023/11/24 01:11:50;;;;;;;;;;;;;;;20.28;49.67;99633.16;5025130;28;2185;-69
2023/11/24 01:14:17;;;;;;;;;;;;;;;20.26;49.87;99630.22;5030999;28;2029;-66
2023/11/24 01:16:44;;;;;;;;;;;;;;;20.26;49.77;99624.47;5028591;28;1779;-67
2023/11/24 01:19:10;;;;;;;;;;;;;;;20.26;49.76;99630.97;5027808;28;2051;-67
2023/11/24 01:21:37;;;;;;;;;;;;;;;20.27;49.79;99620.19;5028327;28;2001;-67
2023/11/24 01:24:03;;;;;;;;;;;;;;;20.26;49.76;99625.22;5029526;28;2052;-67
2023/11/24 01:26:30;;;;;;;;;;;;;;;20.25;49.78;99625.91;5029159;28;1895;-66
2023/11/24 01:28:58;;;;;;;;;;;;;;;20.26;49.69;99630.22;5023779;28;3030;-73
2023/11/24 01:31:25;;;;;;;;;;;;;;;20.24;49.69;99633.78;5031946;28;2082;-73
2023/11/24 01:33:51;;;;;;;;;;;;;;;20.24;49.65;99622.28;5028861;28;1985;-67
2023/11/24 01:36:18;;;;;;;;;;;;;;;20.23;49.61;99622.97;5027386;28;2142;-67
2023/11/24 01:38:44;;;;;;;;;;;;;;;20.22;49.73;99619.34;5024532;28;1603;-66
2023/11/24 01:41:11;;;;;;;;;;;;;;;20.22;49.53;99624.38;5023753;28;1970;-66
2023/11/24 01:43:37;;;;;;;;;;;;;;;20.21;49.59;99617.91;5031329;28;2148;-65
2023/11/24 01:46:05;;;;;;;;;;;;;;;20.21;49.63;99632.25;5024999;28;2021;-68
2023/11/24 01:48:31;;;;;;;;;;;;;;;20.20;49.73;99627.94;5026266;28;2339;-67
2023/11/24 01:50:58;;;;;;;;;;;;;;;20.20;49.75;99630.81;5019954;28;3179;-75
2023/11/24 01:53:24;;;;;;;;;;;;;;;20.19;49.77;99637.97;5024894;28;2005;-68
2023/11/24 01:55:51;;;;;;;;;;;;;;;20.18;49.53;99671.00;5018848;28;1976;-67
2023/11/24 01:58:17;;;;;;;;;;;;;;;20.18;49.72;99679.63;5022298;28;2089;-68
2023/11/24 02:00:44;;;;;;;;;;;;;;;20.17;49.71;99697.53;5027132;28;2176;-67
2023/11/24 02:03:10;;;;;;;;;;;;;;;20.16;49.63;99673.06;5025867;28;1984;-67
2023/11/24 02:05:37;;;;;;;;;;;;;;;20.16;49.51;99675.94;5023768;28;1574;-67
2023/11/24 02:08:04;;;;;;;;;;;;;;;20.15;49.52;99675.19;5006587;28;2098;-66
2023/11/24 02:10:30;;;;;;;;;;;;;;;20.14;49.43;99670.16;5025627;28;3226;-66
2023/11/24 02:12:56;;;;;;;;;;;;;;;20.13;49.55;99680.88;5024217;28;1988;-66
2023/11/24 02:15:23;;;;;;;;;;;;;;;20.13;49.58;99660.78;5022204;28;1910;-66
2023/11/24 02:17:51;;;;;;;;;;;;;;;20.14;49.48;99659.38;5025157;28;2070;-65
2023/11/24 02:20:18;;;;;;;;;;;;;;;20.16;49.63;99655.81;5025919;28;1931;-66
2023/11/24 02:22:44;;;;;;;;;;;;;;;20.15;49.47;99648.59;5025834;28;2093;-66
2023/11/24 02:25:11;;;;;;;;;;;;;;;20.16;49.54;99653.69;5027951;28;2029;-66
2023/11/24 02:27:38;;;;;;;;;;;;;;;20.19;49.46;99634.34;5019139;28;2923;-73
2023/11/24 02:30:05;;;;;;;;;;;;;;;20.18;49.56;99632.88;5019972;28;2012;-66
2023/11/24 02:32:32;;;;;;;;;;;;;;;20.19;49.57;99626.47;5023750;28;1984;-68
2023/11/24 02:34:59;;;;;;;;;;;;;;;20.19;49.44;99625.72;5023378;28;1978;-68
2023/11/24 02:37:26;;;;;;;;;;;;;;;20.19;49.65;99625.72;5019922;28;2080;-67
2023/11/24 02:39:53;;;;;;;;;;;;;;;20.19;49.42;99625.72;5022237;28;1568;-66
2023/11/24 02:42:19;;;;;;;;;;;;;;;20.18;49.69;99627.13;5025477;28;2011;-66
2023/11/24 02:44:46;;;;;;;;;;;;;;;20.18;49.52;99630.75;5024170;28;1817;-66
2023/11/24 02:47:12;;;;;;;;;;;;;;;20.18;49.63;99633.63;5022816;28;3348;-74
2023/11/24 02:49:39;;;;;;;;;;;;;;;20.16;49.81;99616.31;5017902;28;2009;-67
2023/11/24 02:52:05;;;;;;;;;;;;;;;20.16;49.77;99622.06;5022233;28;2660;-66
2023/11/24 02:54:32;;;;;;;;;;;;;;;20.16;49.83;99621.31;5019681;28;1985;-66
2023/11/24 02:56:58;;;;;;;;;;;;;;;20.15;49.74;99625.63;5021431;28;2016;-66
2023/11/24 02:59:25;;;;;;;;;;;;;;;20.12;49.65;99627.69;5021482;28;1973;-66
2023/11/24 03:01:51;;;;;;;;;;;;;;;20.13;49.84;99611.19;5005650;28;1960;-66
2023/11/24 03:04:18;;;;;;;;;;;;;;;20.14;49.82;99615.53;5022384;28;1903;-66
2023/11/24 03:06:45;;;;;;;;;;;;;;;20.11;49.77;99614.00;5018450;28;2967;-74
2023/11/24 03:09:13;;;;;;;;;;;;;;;20.12;49.82;99604.00;5027975;28;1692;-74
2023/11/24 03:11:40;;;;;;;;;;;;;;;20.11;49.79;99597.47;5024144;28;1965;-74
2023/11/24 03:14:07;;;;;;;;;;;;;;;20.11;49.54;99605.38;5021978;28;1864;-73
2023/11/24 03:16:33;;;;;;;;;;;;;;;20.09;49.60;99601.06;5024181;28;2019;-73
2023/11/24 03:19:00;;;;;;;;;;;;;;;20.09;49.49;99612.56;5023025;28;2079;-73
2023/11/24 03:21:27;;;;;;;;;;;;;;;20.07;49.56;99609.63;5023199;28;1981;-73
2023/11/24 03:23:53;;;;;;;;;;;;;;;20.07;49.71;99603.16;5026968;28;2078;-73
2023/11/24 03:26:20;;;;;;;;;;;;;;;20.08;49.52;99610.34;5026370;28;2051;-73
2023/11/24 03:28:47;;;;;;;;;;;;;;;20.08;49.64;99611.06;5028488;28;2024;-73
2023/11/24 03:31:13;;;;;;;;;;;;;;;20.08;49.64;99613.94;5028021;28;1966;-73
2023/11/24 03:33:40;;;;;;;;;;;;;;;20.07;49.58;99626.84;5021894;28;2078;-73
2023/11/24 03:36:06;;;;;;;;;;;;;;;20.06;49.48;99619.63;5027961;28;1934;-73
2023/11/24 03:38:33;;;;;;;;;;;;;;;20.07;49.47;99618.25;5028050;28;1882;-72
2023/11/24 03:41:00;;;;;;;;;;;;;;;20.08;49.63;99622.56;5025751;28;1979;-73
2023/11/24 03:43:26;;;;;;;;;;;;;;;20.09;49.63;99618.28;5026964;28;1973;-73
2023/11/24 03:45:54;;;;;;;;;;;;;;;20.12;49.39;99604.00;5026135;28;2070;-73
2023/11/24 03:48:21;;;;;;;;;;;;;;;20.13;49.48;99606.16;5024305;28;1986;-73
2023/11/24 03:50:49;;;;;;;;;;;;;;;20.13;49.56;99616.94;5024041;28;1930;-73
2023/11/24 03:53:15;;;;;;;;;;;;;;;20.15;49.48;99603.34;5028331;28;1616;-72
2023/11/24 03:55:42;;;;;;;;;;;;;;;20.17;49.41;99594.06;5023432;28;2088;-72
2023/11/24 03:58:09;;;;;;;;;;;;;;;20.17;49.40;99605.56;5026130;28;1565;-75
2023/11/24 04:00:35;;;;;;;;;;;;;;;20.17;49.71;99599.81;5027543;28;2083;-73
2023/11/24 04:03:02;;;;;;;;;;;;;;;20.17;49.41;99599.81;5032342;28;1663;-73
2023/11/24 04:05:28;;;;;;;;;;;;;;;20.16;49.47;99598.31;5028577;28;2030;-72
2023/11/24 04:07:55;;;;;;;;;;;;;;;20.16;49.49;99601.19;5026891;28;2063;-74
2023/11/24 04:10:21;;;;;;;;;;;;;;;20.18;49.53;99612.75;5030698;28;2012;-73
2023/11/24 04:12:48;;;;;;;;;;;;;;;20.18;49.49;99607.00;5027990;28;2051;-73
2023/11/24 04:15:15;;;;;;;;;;;;;;;20.20;49.50;99592.69;5025292;28;1936;-73
2023/11/24 04:17:41;;;;;;;;;;;;;;;20.19;49.70;99603.47;5027590;28;2001;-72
2023/11/24 04:20:10;;;;;;;;;;;;;;;20.20;49.48;99592.69;5028106;28;2024;-72
2023/11/24 04:22:37;;;;;;;;;;;;;;;20.21;49.54;99583.41;5027262;28;2141;-73
2023/11/24 04:25:04;;;;;;;;;;;;;;;20.22;49.67;99584.13;5028398;28;2116;-72
2023/11/24 04:27:31;;;;;;;;;;;;;;;20.22;49.44;99589.88;5026265;28;2041;-73
2023/11/24 04:29:58;;;;;;;;;;;;;;;20.23;49.60;99597.09;5027587;28;1993;-72
2023/11/24 04:32:24;;;;;;;;;;;;;;;20.22;49.68;99584.84;5027916;28;2163;-73
2023/11/24 04:34:51;;;;;;;;;;;;;;;20.22;49.54;99584.13;5025035;28;2456;-72
2023/11/24 04:37:19;;;;;;;;;;;;;;;20.22;49.58;99587.00;5026997;28;2055;-73
2023/11/24 04:39:46;;;;;;;;;;;;;;;20.23;49.46;99580.59;5028023;28;2031;-72
2023/11/24 04:42:12;;;;;;;;;;;;;;;20.22;49.62;99559.00;5026379;28;2070;-73
2023/11/24 04:44:39;;;;;;;;;;;;;;;20.23;49.55;99568.38;5032352;28;2031;-73
2023/11/24 04:47:05;;;;;;;;;;;;;;;20.25;49.48;99577.78;5025987;28;2051;-73
2023/11/24 04:49:32;;;;;;;;;;;;;;;20.26;49.49;99578.50;5026243;28;1978;-73
2023/11/24 04:52:00;;;;;;;;;;;;;;;20.28;49.41;99576.41;5029955;28;2014;-73
2023/11/24 04:54:26;;;;;;;;;;;;;;;20.27;49.28;99579.94;5031794;28;1966;-73
2023/11/24 04:56:56;;;;;;;;;;;;;;;20.29;49.40;99577.13;5027731;28;2114;-73
2023/11/24 04:59:23;;;;;;;;;;;;;;;20.29;49.43;99568.50;5027028;28;2077;-73
2023/11/24 05:01:50;;;;;;;;;;;;;;;20.28;49.13;99564.19;5029045;28;2573;-74
2023/11/24 05:04:16;;;;;;;;;;;;;;;20.29;49.20;99562.75;5030590;28;2009;-72
2023/11/24 05:06:43;;;;;;;;;;;;;;;20.29;49.30;99562.75;5026115;28;2121;-73
2023/11/24 05:09:11;;;;;;;;;;;;;;;20.29;49.27;99546.25;5031766;28;2050;-73
2023/11/24 05:11:38;;;;;;;;;;;;;;;20.31;49.06;99545.56;5027638;28;2078;-73
2023/11/24 05:14:04;;;;;;;;;;;;;;;20.29;49.24;99545.50;5030032;28;2058;-72
2023/11/24 05:16:31;;;;;;;;;;;;;;;20.33;49.14;99548.50;5026328;28;2126;-73
2023/11/24 05:18:57;;;;;;;;;;;;;;;20.32;49.08;99552.78;5030823;28;2008;-72
2023/11/24 05:21:24;;;;;;;;;;;;;;;20.34;48.98;99546.34;5028770;28;2164;-73
2023/11/24 05:23:50;;;;;;;;;;;;;;;20.35;49.11;99533.44;5027077;28;2016;-73
2023/11/24 05:26:17;;;;;;;;;;;;;;;20.35;49.19;99544.94;5026334;28;2003;-73
2023/11/24 05:28:44;;;;;;;;;;;;;;;20.33;49.08;99539.88;5027448;28;2136;-73
2023/11/24 05:31:12;;;;;;;;;;;;;;;20.34;49.05;99546.34;5027894;28;2036;-72
2023/11/24 05:33:38;;;;;;;;;;;;;;;20.33;49.32;99548.50;5024414;28;2006;-72
2023/11/24 05:36:09;;;;;;;;;;;;;;;20.34;49.33;99543.47;5026485;28;2457;-73
2023/11/24 05:38:39;;;;;;;;;;;;;;;20.34;49.13;99544.22;5025267;28;2157;-72
2023/11/24 05:41:05;;;;;;;;;;;;;;;20.34;49.23;99544.22;5025348;28;2036;-72
2023/11/24 05:43:32;;;;;;;;;;;;;;;20.35;49.33;99537.06;5026157;28;2037;-73
2023/11/24 05:45:58;;;;;;;;;;;;;;;20.33;49.34;99545.63;5028521;28;2134;-73
2023/11/24 05:48:25;;;;;;;;;;;;;;;20.34;49.38;99538.47;5024290;28;2193;-73
2023/11/24 05:50:52;;;;;;;;;;;;;;;20.43;49.17;99540.13;5028020;28;2297;-72
2023/11/24 05:53:18;;;;;;;;;;;;;;;20.42;49.56;99550.16;5019132;28;4013;-73
2023/11/24 05:55:45;;;;;;;;;;;;;;;20.57;49.62;99550.53;5021374;28;4081;-72
2023/11/24 05:58:11;;;;;;;;;;;;;;;20.67;49.51;99539.28;4989391;28;9763;-73
2023/11/24 06:00:38;;;;;;;;;;;;;;;20.72;49.29;99546.59;4961070;28;2277;-72
2023/11/24 06:03:04;;;;;;;;;;;;;;;20.73;49.10;99548.06;4964270;28;2226;-73
2023/11/24 06:05:31;;;;;;;;;;;;;;;20.78;49.22;99549.63;4962937;28;2147;-74
2023/11/24 06:08:03;;;;;;;;;;;;;;;20.78;49.09;99543.88;4964288;28;2139;-74
2023/11/24 06:10:29;;;;;;;;;;;;;;;20.78;49.11;99541.00;4956399;28;4128;-72
2023/11/24 06:12:56;;;;;;;;;;;;;;;20.82;48.97;99540.34;4950325;28;5712;-71
2023/11/24 06:15:23;;;;;;;;;;;;;;;20.96;49.00;99539.94;4962582;28;2604;-71
2023/11/24 06:17:49;;;;;;;;;;;;;;;20.68;48.84;99523.50;4964616;28;2080;-70
2023/11/24 06:20:16;;;;;;;;;;;;;;;20.76;49.17;99520.81;4961405;28;2273;-74
2023/11/24 06:22:43;;;;;;;;;;;;;;;20.75;49.14;99533.00;4962490;28;2181;-79
2023/11/24 06:25:10;;;;;;;;;;;;;;;20.63;49.12;99519.06;4963778;28;2157;-73
2023/11/24 06:27:41;;;;;;;;;;;;;;;20.57;48.30;99513.16;4961307;28;2145;-73
2023/11/24 06:30:09;;;;;;;;;;;;;;;20.51;48.75;99500.06;4962850;28;2242;-75
2023/11/24 06:32:35;;;;;;;;;;;;;;;20.53;48.70;99501.53;4964733;28;2230;-72
2023/11/24 06:35:06;;;;;;;;;;;;;;;20.49;48.66;99505.78;4962640;28;2689;-72
2023/11/24 06:37:33;;;;;;;;;;;;;;;20.48;48.52;99512.22;4962655;28;2076;-72
2023/11/24 06:40:02;;;;;;;;;;;;;;;20.47;48.68;99505.72;4962159;28;2224;-71
2023/11/24 06:42:29;;;;;;;;;;;;;;;20.47;48.46;99511.47;4963171;28;2192;-71
2023/11/24 06:44:56;;;;;;;;;;;;;;;20.45;48.74;99514.28;4961143;28;2173;-71
2023/11/24 06:47:23;;;;;;;;;;;;;;;20.46;48.69;99510.03;4962478;28;2148;-72
2023/11/24 06:49:50;;;;;;;;;;;;;;;20.56;50.50;99511.69;4963246;28;4147;-70
2023/11/24 06:52:17;;;;;;;;;;;;;;;20.82;50.53;99511.59;4963715;28;3829;-71
2023/11/24 06:54:43;;;;;;;;;;;;;;;20.99;49.85;99515.56;4969348;28;2145;-71
2023/11/24 06:57:10;;;;;;;;;;;;;;;21.12;49.51;99517.31;4972382;28;2519;-71
2023/11/24 06:59:37;;;;;;;;;;;;;;;21.20;49.06;99517.47;4967891;28;2276;-71
2023/11/24 07:02:04;;;;;;;;;;;;;;;21.21;48.83;99518.94;4960985;28;2060;-73
2023/11/24 07:04:31;;;;;;;;;;;;;;;21.22;48.54;99520.41;4959409;28;3468;-74
2023/11/24 07:06:58;;;;;;;;;;;;;;;21.33;48.40;99519.19;4960303;28;2262;-72
2023/11/24 07:09:24;;;;;;;;;;;;;;;21.43;48.25;99520.84;4961147;28;2251;-72
2023/11/24 07:11:51;;;;;;;;;;;;;;;21.45;48.29;99523.78;4968023;28;2295;-71
2023/11/24 07:14:17;;;;;;;;;;;;;;;21.24;47.78;99529.09;4968951;28;2325;-73
2023/11/24 07:16:44;;;;;;;;;;;;;;;21.33;47.90;99513.44;4964042;28;4094;-72
2023/11/24 07:19:10;;;;;;;;;;;;;;;21.39;47.97;99538.00;4968149;28;3573;-72
2023/11/24 07:21:38;;;;;;;;;;;;;;;21.36;47.75;99522.13;4961945;28;2386;-72
2023/11/24 07:24:05;;;;;;;;;;;;;;;21.33;47.39;99536.47;4944942;28;2498;-73
2023/11/24 07:26:32;;;;;;;;;;;;;;;21.30;47.83;99532.09;4962915;28;2213;-69
2023/11/24 07:28:58;;;;;;;;;;;;;;;21.41;48.12;99535.94;4963627;28;1975;-70
2023/11/24 07:31:25;;;;;;;;;;;;;;;21.60;47.58;99528.41;4963933;28;1568;-70
2023/11/24 07:33:52;;;;;;;;;;;;;;;21.65;47.16;99529.22;4962872;28;1648;-71
2023/11/24 07:36:21;;;;;;;;;;;;;;;21.68;47.40;99534.31;4966258;28;1914;-72
2023/11/24 07:38:48;;;;;;;;;;;;;;;21.77;47.07;99522.97;4968533;28;5952;-71
2023/11/24 07:41:15;;;;;;;;;;;;;;;21.77;47.07;99522.97;4973605;28;2431;-71
2023/11/24 07:43:42;;;;;;;;;;;;;;;21.56;47.21;99528.34;4969762;28;2143;-68
2023/11/24 07:46:10;;;;;;;;;;;;;;;21.46;47.43;99528.09;4972085;28;2268;-68
2023/11/24 07:48:37;;;;;;;;;;;;;;;21.49;47.44;99523.88;4970561;28;2199;-67
2023/11/24 07:51:05;;;;;;;;;;;;;;;21.49;47.26;99518.09;4969223;28;2134;-67
2023/11/24 07:53:32;;;;;;;;;;;;;;;21.47;47.25;99526.69;4971017;28;2132;-69
2023/11/24 07:55:59;;;;;;;;;;;;;;;21.27;47.45;99521.94;4967553;28;2177;-70
2023/11/24 07:58:28;;;;;;;;;;;;;;;21.34;47.52;99520.66;4965952;28;4076;-73
2023/11/24 08:00:55;;;;;;;;;;;;;;;21.52;47.85;99528.97;4968175;28;2571;-69
2023/11/24 08:03:22;;;;;;;;;;;;;;;21.50;48.07;99522.44;4947668;28;4181;-70
2023/11/24 08:05:51;;;;;;;;;;;;;;;21.45;48.42;99518.03;4965383;28;2403;-69
2023/11/24 08:08:17;;;;;;;;;;;;;;;21.47;48.40;99518.78;4967811;28;2534;-69
2023/11/24 08:10:43;;;;;;;;;;;;;;;21.56;47.88;99521.84;4963647;28;2139;-70
2023/11/24 08:13:10;;;;;;;;;;;;;;;21.83;47.75;99517.31;4967189;28;2443;-72
2023/11/24 08:15:36;;;;;;;;;;;;;;;21.91;47.38;99523.25;4963079;28;2141;-70
2023/11/24 08:18:04;;;;;;;;;;;;;;;21.82;47.77;99518.75;4962686;28;2147;-70
2023/11/24 08:20:30;;;;;;;;;;;;;;;21.78;47.64;99515.78;4964627;28;2626;-70
2023/11/24 08:22:58;;;;;;;;;;;;;;;21.75;47.49;99515.72;4964371;28;2105;-69
2023/11/24 08:25:24;;;;;;;;;;;;;;;21.70;47.95;99507.72;4965149;28;2179;-69
2023/11/24 08:27:51;;;;;;;;;;;;;;;21.60;48.56;99502.50;4961937;28;2318;-70
2023/11/24 08:30:17;;;;;;;;;;;;;;;21.62;48.28;99507.53;4963196;28;2226;-69
2023/11/24 08:32:46;;;;;;;;;;;;;;;21.62;48.23;99507.53;4964064;28;2095;-69
2023/11/24 08:35:14;;;;;;;;;;;;;;;21.62;48.23;99502.50;4964945;28;2118;-69
2023/11/24 08:37:41;;;;;;;;;;;;;;;21.61;47.74;99495.31;4965328;28;2183;-70
2023/11/24 08:40:11;;;;;;;;;;;;;;;21.69;47.60;99497.59;4962342;28;2095;-69
2023/11/24 08:42:38;;;;;;;;;;;;;;;21.71;47.59;99501.25;4965619;28;2233;-69
2023/11/24 08:45:06;;;;;;;;;;;;;;;21.72;47.82;99496.97;4969275;28;2648;-69
2023/11/24 08:47:32;;;;;;;;;;;;;;;21.81;47.35;99494.25;4965095;28;2176;-72
2023/11/24 08:49:59;;;;;;;;;;;;;;;21.85;47.33;99483.53;4964332;28;2253;-71
2023/11/24 08:52:26;;;;;;;;;;;;;;;21.82;47.47;99501.44;4966266;28;2191;-70
2023/11/24 08:54:52;;;;;;;;;;;;;;;21.83;47.22;99497.88;4965217;28;2160;-70
2023/11/24 08:57:19;;;;;;;;;;;;;;;21.82;47.67;99492.81;4959740;28;2288;-71
2023/11/24 08:59:45;;;;;;;;;;;;;;;21.82;47.66;99490.66;4961201;28;2194;-71
2023/11/24 09:02:12;;;;;;;;;;;;;;;21.77;47.64;99492.00;4960447;28;2175;-71
2023/11/24 09:04:38;;;;;;;;;;;;;;;20.59;41.71;99495.94;4960144;28;2195;-71
2023/11/24 09:07:05;;;;;;;;;;;;;;;20.26;41.74;99493.00;4963329;28;2197;-72
2023/11/24 09:09:33;;;;;;;;;;;;;;;19.87;40.59;99480.50;4963572;28;2210;-73
2023/11/24 09:12:00;;;;;;;;;;;;;;;20.53;40.73;99479.25;4970695;28;2115;-72
2023/11/24 09:14:27;;;;;;;;;;;;;;;20.85;42.05;99485.06;4964970;28;2285;-71
2023/11/24 09:16:53;;;;;;;;;;;;;;;21.06;42.57;99479.75;4941469;28;9470;-71
2023/11/24 09:19:20;;;;;;;;;;;;;;;21.21;43.23;99483.66;4930362;28;54968;-72
2023/11/24 09:21:48;;;;;;;;;;;;;;;21.23;43.52;99475.78;4982757;28;2221;-70
2023/11/24 09:24:15;;;;;;;;;;;;;;;21.25;43.54;99472.22;4982215;28;2939;-71
2023/11/24 09:26:42;;;;;;;;;;;;;;;21.24;43.68;99471.50;4981664;28;2157;-71
2023/11/24 09:29:08;;;;;;;;;;;;;;;20.67;42.59;99476.03;4983061;28;2194;-70
2023/11/24 09:31:35;;;;;;;;;;;;;;;20.66;42.81;99468.78;4925623;28;10497;-70
2023/11/24 09:34:28;;;;;;;;;;;;;;;21.02;43.15;99450.88;5075048;28;2116;-72
2023/11/24 09:36:55;;;;;;;;;;;;;;;21.18;43.31;99451.22;5007590;28;9602;-72
2023/11/24 09:39:26;;;;;;;;;;;;;;;21.21;43.78;99444.09;4996894;28;9481;-72
2023/11/24 09:40:44;;;;;;;;;;;;;;;21.23;43.73;99449.88;2089862;28;4227;-75
2023/11/24 09:41:46;;;;;;;;;;;;;;;21.26;43.60;99444.91;2091104;28;3658;-74
2023/11/24 09:42:48;;;;;;;;;;;;;;;21.20;43.96;99451.25;2091761;28;2432;-75
2023/11/24 09:43:49;;;;;;;;;;;;;;;21.21;44.04;99440.47;2089714;28;2176;-74
2023/11/24 09:44:54;;;;;;;;;;;;;;;21.10;44.56;99445.31;2091369;28;2091;-79
2023/11/24 09:45:56;;;;;;;;;;;;;;;21.15;44.54;99435.34;2089156;28;2182;-73
2023/11/24 09:46:57;;;;;;;;;;;;;;;20.99;44.12;99447.25;2099896;28;2593;-74
2023/11/24 09:47:59;;;;;;;;;;;;;;;20.92;43.73;99448.53;2097932;28;2115;-73
2023/11/24 09:49:01;;;;;;;;;;;;;;;20.92;43.67;99425.50;2096847;28;1778;-73
2023/11/24 09:50:03;;;;;;;;;;;;;;;20.96;43.55;99436.34;2093711;28;1629;-73
2023/11/24 09:51:06;;;;;;;;;;;;;;;20.97;43.45;99429.19;2093067;28;1580;-73
2023/11/24 09:52:07;;;;;;;;;;;;;;;20.98;43.53;99431.41;2099274;28;1587;-73
2023/11/24 09:53:12;;;;;;;;;;;;;;;21.00;43.56;99430.69;2095856;28;1490;-73
2023/11/24 09:54:14;;;;;;;;;;;;;;;20.99;43.74;99437.88;2092552;28;1664;-73
2023/11/24 09:55:15;;;;;;;;;;;;;;;21.01;43.97;99417.78;2090545;28;1593;-74
2023/11/24 09:56:17;;;;;;;;;;;;;;;21.01;43.93;99420.66;2089865;28;1849;-73
2023/11/24 09:57:19;;;;;;;;;;;;;;;21.03;43.86;99426.47;2089345;28;1553;-73
2023/11/24 09:58:22;;;;;;;;;;;;;;;21.02;43.94;99424.97;2089337;28;1586;-73
2023/11/24 09:59:23;;;;;;;;;;;;;;;21.00;44.09;99416.31;2091705;28;2508;-74
2023/11/24 10:00:25;;;;;;;;;;;;;;;21.01;44.04;99426.41;2091028;28;1985;-73
2023/11/24 10:01:29;;;;;;;;;;;;;;;21.00;44.21;99413.44;2092315;28;1656;-74
2023/11/24 10:02:31;;;;;;;;;;;;;;;21.00;44.42;99419.19;2093697;28;1637;-73
2023/11/24 10:03:34;;;;;;;;;;;;;;;20.99;44.43;99409.09;2092676;28;2063;-73
2023/11/24 10:04:36;;;;;;;;;;;;;;;20.98;44.42;99405.50;2091455;28;4299;-74
2023/11/24 10:05:38;;;;;;;;;;;;;;;20.98;44.45;99410.50;2093653;28;3709;-73
2023/11/24 10:06:39;;;;;;;;;;;;;;;20.97;44.59;99409.06;2091239;28;3674;-73
2023/11/24 10:07:41;;;;;;;;;;;;;;;20.98;44.59;99410.50;2093509;28;1542;-73
2023/11/24 10:08:42;;;;;;;;;;;;;;;20.97;44.63;99414.81;2096942;28;1423;-73
2023/11/24 10:09:46;;;;;;;;;;;;;;;20.96;44.54;99407.59;2093779;28;1523;-73
2023/11/24 10:10:48;;;;;;;;;;;;;;;20.96;45.01;99401.81;2088079;28;3708;-73
2023/11/24 10:11:50;;;;;;;;;;;;;;;20.95;44.88;99409.00;2095549;28;1580;-74
2023/11/24 10:12:54;;;;;;;;;;;;;;;20.96;44.85;99405.47;2093093;28;2344;-73
2023/11/24 10:13:56;;;;;;;;;;;;;;;20.96;44.84;99396.06;2090873;28;1664;-73
2023/11/24 10:14:57;;;;;;;;;;;;;;;20.97;44.84;99400.44;2092273;28;1684;-73
2023/11/24 10:16:01;;;;;;;;;;;;;;;20.97;44.76;99400.44;2093123;28;1701;-72
2023/11/24 10:17:02;;;;;;;;;;;;;;;20.97;44.79;99397.56;2094205;28;1515;-73
2023/11/24 10:18:04;;;;;;;;;;;;;;;20.97;44.72;99391.78;2090857;28;1489;-73
2023/11/24 10:19:07;;;;;;;;;;;;;;;20.97;44.71;99397.56;2091510;28;1498;-73
2023/11/24 10:20:11;;;;;;;;;;;;;;;20.96;44.99;99391.06;2098701;28;1896;-73
2023/11/24 10:21:12;;;;;;;;;;;;;;;20.95;44.90;99380.97;2091653;28;1906;-73
2023/11/24 10:22:30;;;;;;;;;;;;;;;20.95;45.14;99386.00;2093250;28;3308;-73
2023/11/24 10:23:31;;;;;;;;;;;;;;;20.93;45.14;99387.41;2090246;28;1434;-73
2023/11/24 10:24:39;;;;;;;;;;;;;;;20.92;45.04;99390.97;2094202;28;1584;-73
2023/11/24 10:25:40;;;;;;;;;;;;;;;20.91;45.24;99381.63;2094797;28;1581;-72
2023/11/24 10:26:44;;;;;;;;;;;;;;;20.93;45.00;99387.41;2092249;28;1549;-73
2023/11/24 10:27:46;;;;;;;;;;;;;;;20.94;44.85;99388.16;2091722;28;1610;-73
2023/11/24 10:28:47;;;;;;;;;;;;;;;20.93;45.22;99392.44;2095812;28;1490;-72
2023/11/24 10:29:49;;;;;;;;;;;;;;;20.93;45.00;99390.28;2094264;28;1609;-73
2023/11/24 10:30:50;;;;;;;;;;;;;;;20.93;45.18;99381.66;2092364;28;1601;-73
2023/11/24 10:31:52;;;;;;;;;;;;;;;20.91;45.09;99378.75;2093306;28;1676;-73
2023/11/24 10:32:55;;;;;;;;;;;;;;;20.92;44.95;99380.19;2088819;28;1517;-73
2023/11/24 10:33:58;;;;;;;;;;;;;;;20.91;45.02;99378.75;2092700;28;1490;-73
2023/11/24 10:35:00;;;;;;;;;;;;;;;20.92;45.42;99380.19;2092444;28;1564;-72
2023/11/24 10:36:04;;;;;;;;;;;;;;;20.91;45.26;99373.00;2091895;28;1557;-73
2023/11/24 10:37:08;;;;;;;;;;;;;;;20.90;45.46;99374.41;2095175;28;1519;-73
2023/11/24 10:38:10;;;;;;;;;;;;;;;20.93;45.22;99375.88;2089517;28;1666;-73
2023/11/24 10:39:14;;;;;;;;;;;;;;;20.92;45.09;99368.69;2084540;28;1744;-73
2023/11/24 10:40:17;;;;;;;;;;;;;;;20.93;45.22;99360.78;2086119;28;1894;-73
2023/11/24 10:41:19;;;;;;;;;;;;;;;20.92;45.42;99360.06;2089308;28;1732;-73
2023/11/24 10:42:20;;;;;;;;;;;;;;;20.92;45.22;99365.81;2079776;28;1737;-73
2023/11/24 10:43:22;;;;;;;;;;;;;;;20.92;45.29;99360.06;2085969;28;1973;-73
2023/11/24 10:44:24;;;;;;;;;;;;;;;20.93;45.42;99352.88;2091441;28;1621;-73
2023/11/24 10:45:28;;;;;;;;;;;;;;;20.93;45.28;99352.88;2090827;28;1576;-71
2023/11/24 10:46:30;;;;;;;;;;;;;;;20.92;45.35;99368.69;2089446;28;1685;-71
2023/11/24 10:47:36;;;;;;;;;;;;;;;20.92;45.41;99368.69;2091732;28;1730;-71
2023/11/24 10:48:46;;;;;;;;;;;;;;;20.92;45.62;99356.47;2090590;28;1529;-69
2023/11/24 10:49:49;;;;;;;;;;;;;;;20.92;45.46;99360.06;2095094;28;1560;-68
2023/11/24 10:50:59;;;;;;;;;;;;;;;20.91;45.63;99361.50;2093460;28;1520;-68
2023/11/24 10:52:00;;;;;;;;;;;;;;;20.91;45.55;99349.97;2086989;28;1532;-69
2023/11/24 10:53:21;;;;;;;;;;;;;;;20.91;45.60;99338.47;2088503;28;1450;-67
2023/11/24 10:54:25;;;;;;;;;;;;;;;20.91;45.53;99349.97;2084783;28;1656;-68
2023/11/24 10:55:30;;;;;;;;;;;;;;;20.90;45.58;99337.00;2085014;28;1530;-68
2023/11/24 10:56:31;;;;;;;;;;;;;;;20.91;45.48;99335.59;2089407;28;1694;-68
2023/11/24 10:57:33;;;;;;;;;;;;;;;20.90;45.66;99334.13;2087946;28;1584;-68
2023/11/24 10:58:34;;;;;;;;;;;;;;;20.89;45.47;99335.56;2087291;28;1583;-68
2023/11/24 10:59:37;;;;;;;;;;;;;;;20.89;45.61;99329.78;2090949;28;1654;-68
2023/11/24 11:00:39;;;;;;;;;;;;;;;20.88;45.69;99328.31;2086404;28;1985;-68
2023/11/24 11:01:41;;;;;;;;;;;;;;;20.87;45.69;99324.00;2079732;28;1632;-68
2023/11/24 11:02:42;;;;;;;;;;;;;;;20.87;45.85;99321.13;2083155;28;1584;-68
2023/11/24 11:03:44;;;;;;;;;;;;;;;20.87;45.87;99329.03;2087831;28;1736;-68